Kezdőlap
METAR-TAF:

METAR-TAF

Repülőterek :

Sheldon Municipal Airport

Sheldon, Iowa, Amerikai Egyesült Államok

földrajzi szélesség: 43-13N, földrajzi hosszúság: 095-50W, magasság: 432 m

Jelenlegi meteorológiai megfigyelések

A jelentés 32 perccel ezelõtt készült, 12:55 UTC
Kelet-délkeleti szél 13 kt széllökések: 27 kt
Hőmérséklet 12°C
Páratartalom 100%
Légköri nyomás 1000 hPa
Látótávolság: 12.9 km
Szórványos felhőzet 2000 lábon
Szakadozott felhőzet 2800 lábon
Borult 3400 lábon

METAR: KSHL 161255Z AUTO 12013G27KT 8SM SCT020 BKN028 OVC034 12/12 A2953 RMK AO2 P0034

Idő: 08:27 (13:27 UTC)


TAF: hiányzik

Meteorológiai megfigyelések és előrejelzések több, mint 4000 repülőtéren (METAR és TAF jelentéseket).

A térképen piros és sárga pontok jelzik az elérhető meteorológiai állomásokat.

Mozgassa az egeret a pont fölött, hogy megjelenjen az állomás neve.

Azután kattintson az időjárási megfigyelések és előrejelzések megtekintéséhez.

A térkép megváltoztatása: kattintson a fekete keresztel jelölt zöld gombra ráközelítéshez, a vonallal jelölt zöld gombra távolításhoz, vagy a zöld nyilakra a szomszédos térképek eléréséhez.


METAR-TAF: